createdAt,value
2022-08-24T00:00:35.350Z,20.92
2022-08-24T00:03:07.508Z,15.40
2022-08-24T00:05:35.274Z,22.77
2022-08-24T00:08:03.224Z,20.48
2022-08-24T00:10:30.620Z,21.92
2022-08-24T00:12:58.717Z,19.05
2022-08-24T00:15:26.257Z,21.45
2022-08-24T00:17:53.483Z,19.45
2022-08-24T00:20:20.858Z,19.95
2022-08-24T00:22:48.367Z,16.90
2022-08-24T00:25:20.024Z,22.42
2022-08-24T00:27:47.951Z,19.05
2022-08-24T00:30:18.008Z,15.73
2022-08-24T00:32:47.058Z,28.75
2022-08-24T00:35:18.371Z,19.55
2022-08-24T00:37:48.105Z,23.83
2022-08-24T00:40:20.135Z,21.48
2022-08-24T00:42:48.205Z,21.30
2022-08-24T00:45:16.491Z,20.35
2022-08-24T00:47:51.731Z,18.13
2022-08-24T00:50:25.767Z,21.42
2022-08-24T00:53:06.461Z,20.55
2022-08-24T00:55:42.292Z,17.90
2022-08-24T00:58:17.027Z,19.27
2022-08-24T01:00:49.947Z,21.40
2022-08-24T01:03:18.277Z,15.48
2022-08-24T01:05:47.039Z,16.95
2022-08-24T01:08:17.153Z,23.85
2022-08-24T01:10:49.572Z,18.58
2022-08-24T01:13:17.360Z,18.88
2022-08-24T01:15:48.740Z,16.67
2022-08-24T01:18:38.291Z,17.30
2022-08-24T01:21:05.773Z,17.42
2022-08-24T01:23:43.608Z,17.60
2022-08-24T01:26:18.369Z,15.82
2022-08-24T01:28:49.214Z,21.05
2022-08-24T01:31:22.405Z,19.35
2022-08-24T01:33:52.040Z,21.45
2022-08-24T01:36:37.864Z,23.10
2022-08-24T01:39:34.573Z,28.15
2022-08-24T01:42:02.507Z,22.92
2022-08-24T01:44:34.677Z,18.08
2022-08-24T01:47:07.424Z,17.40
2022-08-24T01:49:39.444Z,19.45
2022-08-24T01:52:10.000Z,19.00
2022-08-24T01:54:38.041Z,17.23
2022-08-24T01:57:05.600Z,20.52
2022-08-24T01:59:33.468Z,19.83
2022-08-24T02:02:16.410Z,25.23
2022-08-24T02:04:44.272Z,17.63
2022-08-24T02:07:13.590Z,29.13
2022-08-24T02:09:41.453Z,23.17
2022-08-24T02:12:09.235Z,23.40
2022-08-24T02:14:37.699Z,19.25
2022-08-24T02:17:06.811Z,18.65
2022-08-24T02:19:34.928Z,22.58
2022-08-24T02:22:02.590Z,18.05
2022-08-24T02:24:30.657Z,23.42
2022-08-24T02:26:58.513Z,19.17
2022-08-24T02:29:26.013Z,18.70
2022-08-24T02:31:53.292Z,20.65
2022-08-24T02:34:21.743Z,18.77
2022-08-24T02:36:49.642Z,17.75
2022-08-24T02:39:16.976Z,20.70
2022-08-24T02:41:47.036Z,20.20
2022-08-24T02:44:14.517Z,17.52
2022-08-24T02:46:41.891Z,15.38
2022-08-24T02:49:10.710Z,17.60
2022-08-24T02:51:45.416Z,16.92
2022-08-24T02:54:18.840Z,17.95
2022-08-24T02:56:48.924Z,18.75
2022-08-24T02:59:17.680Z,16.63
2022-08-24T03:01:45.540Z,17.00
2022-08-24T03:04:14.536Z,19.63
2022-08-24T03:06:42.499Z,18.48
2022-08-24T03:09:10.309Z,18.80
2022-08-24T03:11:37.971Z,18.85
2022-08-24T03:14:06.102Z,20.55
2022-08-24T03:16:33.589Z,19.08
2022-08-24T03:19:02.026Z,15.77
2022-08-24T03:21:33.532Z,19.08
2022-08-24T03:24:01.024Z,16.50
2022-08-24T03:26:28.843Z,16.42
2022-08-24T03:28:56.685Z,18.92
2022-08-24T03:31:27.061Z,16.60
2022-08-24T03:33:54.729Z,13.15
2022-08-24T03:36:22.641Z,14.65
2022-08-24T03:38:50.639Z,14.95
2022-08-24T03:41:19.487Z,15.52
2022-08-24T03:43:46.949Z,19.92
2022-08-24T03:46:21.601Z,16.10
2022-08-24T03:48:50.516Z,17.80
2022-08-24T03:51:24.122Z,19.13
2022-08-24T03:56:22.176Z,13.75
2022-08-24T03:58:49.693Z,18.83
2022-08-24T04:01:17.884Z,18.58
2022-08-24T04:03:47.131Z,17.42
2022-08-24T04:06:17.827Z,14.43
2022-08-24T04:08:46.353Z,17.58
2022-08-24T04:11:18.006Z,14.75
2022-08-24T04:13:46.818Z,19.00
2022-08-24T04:16:17.124Z,17.25
2022-08-24T04:18:46.147Z,17.27
2022-08-24T04:21:23.685Z,15.77
2022-08-24T04:23:52.711Z,12.65
2022-08-24T04:26:28.679Z,17.85
2022-08-24T04:29:12.713Z,17.05
2022-08-24T04:31:46.674Z,20.85
2022-08-24T04:34:16.135Z,16.83
2022-08-24T04:36:45.250Z,17.77
2022-08-24T04:39:13.825Z,21.92
2022-08-24T04:41:57.388Z,24.33
2022-08-24T04:44:32.382Z,20.08
2022-08-24T04:47:01.597Z,24.02
2022-08-24T04:49:29.991Z,20.42
2022-08-24T04:51:57.351Z,18.05
2022-08-24T04:54:25.323Z,22.40
2022-08-24T04:57:15.844Z,19.42
2022-08-24T04:59:46.975Z,27.27
2022-08-24T05:02:14.315Z,21.05
2022-08-24T05:04:41.913Z,21.58
2022-08-24T05:07:09.572Z,24.80
2022-08-24T05:12:09.593Z,21.77
2022-08-24T05:14:40.487Z,26.85
2022-08-24T05:17:09.315Z,20.35
2022-08-24T05:19:37.908Z,25.65
2022-08-24T05:22:05.685Z,23.20
2022-08-24T05:24:33.379Z,20.88
2022-08-24T05:27:01.009Z,22.15
2022-08-24T05:29:29.047Z,18.98
2022-08-24T05:31:56.375Z,21.00
2022-08-24T05:34:24.927Z,20.63
2022-08-24T05:36:52.724Z,24.98
2022-08-24T05:39:42.351Z,23.98
2022-08-24T05:42:10.255Z,18.92
2022-08-24T05:44:44.329Z,19.17
2022-08-24T05:47:11.801Z,18.65
2022-08-24T05:49:41.556Z,20.67
2022-08-24T05:54:37.836Z,23.80
2022-08-24T05:57:06.547Z,14.55
2022-08-24T05:59:43.505Z,20.75
2022-08-24T06:02:16.266Z,15.60
2022-08-24T06:04:45.218Z,20.27
2022-08-24T06:07:14.256Z,15.90
2022-08-24T06:09:45.861Z,17.40
2022-08-24T06:12:13.713Z,20.85
2022-08-24T06:14:46.276Z,13.23
2022-08-24T06:17:13.957Z,24.88
2022-08-24T06:19:43.885Z,13.40
2022-08-24T06:22:11.123Z,12.80
2022-08-24T06:24:59.078Z,12.40
2022-08-24T06:27:29.061Z,14.13
2022-08-24T06:30:01.343Z,12.55
2022-08-24T06:32:59.144Z,13.35
2022-08-24T06:35:38.253Z,13.57
2022-08-24T06:38:06.934Z,17.20
2022-08-24T06:40:35.028Z,12.77
2022-08-24T06:43:04.476Z,13.27
2022-08-24T06:45:45.913Z,14.90
2022-08-24T06:48:16.605Z,11.70
2022-08-24T06:50:45.152Z,16.50
2022-08-24T06:53:15.012Z,15.18
2022-08-24T06:55:54.278Z,12.38
2022-08-24T06:58:22.884Z,17.90
2022-08-24T07:00:50.408Z,11.55
2022-08-24T07:03:21.108Z,13.83
2022-08-24T07:05:57.920Z,11.68
2022-08-24T07:08:37.536Z,18.80
2022-08-24T07:11:06.126Z,18.48
2022-08-24T07:13:34.374Z,13.50
2022-08-24T07:16:02.099Z,12.95
2022-08-24T07:18:30.021Z,15.95
2022-08-24T07:21:01.486Z,14.07
2022-08-24T07:23:59.415Z,18.13
2022-08-24T07:26:29.978Z,9.82
2022-08-24T07:29:06.498Z,19.05
2022-08-24T07:31:43.992Z,13.30
2022-08-24T07:34:17.520Z,14.57
2022-08-24T07:36:45.634Z,12.70
2022-08-24T07:39:13.400Z,13.13
2022-08-24T07:42:02.672Z,14.02
2022-08-24T07:44:31.885Z,14.20
2022-08-24T07:47:07.253Z,11.40
2022-08-24T07:49:47.100Z,17.77
2022-08-24T07:52:14.539Z,15.75
2022-08-24T07:54:41.859Z,14.30
2022-08-24T07:57:09.373Z,12.80
2022-08-24T07:59:37.997Z,11.52
2022-08-24T08:02:05.821Z,12.65
2022-08-24T08:04:34.384Z,12.43
2022-08-24T08:07:02.012Z,13.90
2022-08-24T08:09:32.388Z,9.52
2022-08-24T08:12:00.258Z,12.75
2022-08-24T08:14:27.898Z,13.40
2022-08-24T08:16:56.235Z,17.65
2022-08-24T08:19:23.723Z,12.45
2022-08-24T08:22:11.862Z,11.63
2022-08-24T08:25:02.707Z,13.83
2022-08-24T08:27:30.069Z,11.98
2022-08-24T08:29:57.728Z,12.52
2022-08-24T08:32:25.192Z,9.98
2022-08-24T08:34:52.478Z,8.43
2022-08-24T08:37:19.950Z,10.98
2022-08-24T08:39:47.720Z,14.30
2022-08-24T08:45:19.077Z,15.55
2022-08-24T08:48:33.397Z,12.02
2022-08-24T08:51:16.480Z,12.95
2022-08-24T08:54:12.346Z,10.98
2022-08-24T08:56:59.345Z,11.80
2022-08-24T08:59:37.429Z,12.40
2022-08-24T09:02:31.488Z,8.30
2022-08-24T09:05:09.480Z,17.98
2022-08-24T09:08:04.998Z,14.48
2022-08-24T09:10:41.446Z,12.88
2022-08-24T09:13:34.284Z,13.10
2022-08-24T09:16:15.673Z,11.70
2022-08-24T09:19:20.744Z,13.45
2022-08-24T09:22:08.641Z,13.45
2022-08-24T09:24:50.157Z,11.48
2022-08-24T09:28:01.326Z,12.98
2022-08-24T09:30:58.357Z,16.40
2022-08-24T09:33:37.845Z,16.85
2022-08-24T09:36:22.658Z,11.55
2022-08-24T09:38:59.065Z,11.13
2022-08-24T09:41:40.424Z,7.93
2022-08-24T09:44:41.806Z,11.00
2022-08-24T09:47:15.511Z,12.10
2022-08-24T09:49:57.674Z,8.88
2022-08-24T09:52:31.771Z,15.27
2022-08-24T09:55:26.898Z,10.88
2022-08-24T09:58:16.115Z,11.65
2022-08-24T10:01:18.012Z,8.98
2022-08-24T10:04:08.813Z,11.05
2022-08-24T10:06:47.953Z,15.25
2022-08-24T10:09:27.608Z,11.98
2022-08-24T10:12:04.340Z,9.85
2022-08-24T10:14:41.488Z,11.77
2022-08-24T10:17:29.964Z,12.25
2022-08-24T10:20:15.698Z,10.32
2022-08-24T10:23:01.277Z,11.13
2022-08-24T10:25:37.890Z,12.90
2022-08-24T10:28:42.450Z,8.98
2022-08-24T10:31:14.900Z,7.65
2022-08-24T10:34:00.815Z,12.65
2022-08-24T10:36:56.765Z,8.57
2022-08-24T10:39:42.802Z,10.25
2022-08-24T10:43:06.752Z,10.77
2022-08-24T10:45:49.408Z,13.73
2022-08-24T10:48:50.864Z,10.18
2022-08-24T10:51:50.456Z,8.88
2022-08-24T10:54:20.316Z,16.30
2022-08-24T10:56:56.518Z,13.05
2022-08-24T10:59:29.900Z,11.98
2022-08-24T11:02:34.861Z,11.48
2022-08-24T11:05:14.665Z,8.88
2022-08-24T11:08:08.999Z,9.00
2022-08-24T11:10:39.377Z,9.32
2022-08-24T11:13:26.836Z,12.60
2022-08-24T11:16:03.273Z,13.85
2022-08-24T11:18:52.479Z,9.98
2022-08-24T11:21:45.261Z,9.30
2022-08-24T11:24:29.593Z,6.65
2022-08-24T11:27:06.819Z,7.45
2022-08-24T11:29:52.378Z,8.70
2022-08-24T11:32:45.873Z,9.77
2022-08-24T11:35:19.814Z,11.13
2022-08-24T11:37:49.437Z,10.05
2022-08-24T11:40:18.334Z,10.98
2022-08-24T11:43:05.589Z,8.65
2022-08-24T11:45:41.033Z,7.88
2022-08-24T11:48:29.776Z,12.30
2022-08-24T11:50:57.377Z,14.43
2022-08-24T11:56:38.927Z,9.75
2022-08-24T11:59:12.660Z,6.18
2022-08-24T12:02:04.755Z,5.72
2022-08-24T12:04:31.984Z,6.82
2022-08-24T12:06:59.456Z,11.48
2022-08-24T12:09:30.904Z,10.77
2022-08-24T12:12:07.858Z,7.03
2022-08-24T12:14:48.813Z,10.27
2022-08-24T12:17:23.550Z,13.63
2022-08-24T12:20:03.620Z,7.93
2022-08-24T12:22:32.463Z,8.00
2022-08-24T12:25:25.002Z,7.78
2022-08-24T12:27:54.456Z,7.65
2022-08-24T12:30:22.552Z,5.90
2022-08-24T12:33:07.258Z,6.88
2022-08-24T12:35:36.918Z,7.03
2022-08-24T12:38:04.408Z,7.10
2022-08-24T12:40:48.193Z,19.25
2022-08-24T12:43:25.540Z,6.60
2022-08-24T12:45:56.821Z,7.03
2022-08-24T12:48:49.678Z,5.68
2022-08-24T12:51:23.002Z,10.18
2022-08-24T12:54:26.884Z,7.15
2022-08-24T12:57:13.275Z,7.78
2022-08-24T12:59:47.421Z,11.63
2022-08-24T13:02:30.734Z,9.35
2022-08-24T13:05:05.477Z,8.20
2022-08-24T13:07:42.841Z,6.47
2022-08-24T13:10:35.451Z,8.02
2022-08-24T13:13:05.509Z,20.92
2022-08-24T13:15:33.024Z,8.18
2022-08-24T13:18:02.984Z,10.57
2022-08-24T13:20:36.628Z,6.07
2022-08-24T13:23:19.047Z,8.55
2022-08-24T13:25:51.787Z,8.35
2022-08-24T13:28:22.051Z,12.93
2022-08-24T13:31:16.616Z,12.88
2022-08-24T13:33:57.290Z,10.65
2022-08-24T13:36:46.205Z,9.88
2022-08-24T13:39:44.714Z,7.05
2022-08-24T13:42:58.722Z,7.53
2022-08-24T13:45:41.061Z,9.55
2022-08-24T13:48:14.585Z,8.50
2022-08-24T13:51:25.621Z,9.70
2022-08-24T13:54:26.465Z,8.00
2022-08-24T13:57:09.216Z,6.90
2022-08-24T13:59:56.187Z,10.85
2022-08-24T14:03:00.852Z,15.00
2022-08-24T14:05:44.928Z,9.82
2022-08-24T14:08:27.629Z,12.60
2022-08-24T14:11:06.907Z,7.07
2022-08-24T14:13:49.726Z,8.13
2022-08-24T14:16:47.697Z,6.25
2022-08-24T14:19:36.754Z,13.23
2022-08-24T14:22:09.960Z,8.45
2022-08-24T14:24:46.456Z,5.15
2022-08-24T14:27:35.752Z,9.30
2022-08-24T14:30:18.454Z,5.97
2022-08-24T14:33:00.806Z,9.65
2022-08-24T14:35:31.997Z,9.88
2022-08-24T14:38:21.750Z,6.80
2022-08-24T14:40:52.188Z,10.25
2022-08-24T14:43:28.595Z,11.43
2022-08-24T14:46:29.328Z,12.48
2022-08-24T14:49:24.010Z,9.25
2022-08-24T14:52:11.089Z,11.87
2022-08-24T14:55:04.371Z,10.60
2022-08-24T14:58:01.560Z,12.68
2022-08-24T15:00:52.979Z,11.15
2022-08-24T15:03:47.902Z,11.50
2022-08-24T15:06:27.978Z,10.25
2022-08-24T15:09:27.118Z,6.55
2022-08-24T15:12:04.147Z,10.50
2022-08-24T15:14:48.265Z,7.97
2022-08-24T15:17:29.182Z,10.07
2022-08-24T15:20:23.064Z,11.52
2022-08-24T15:23:03.989Z,9.90
2022-08-24T15:26:06.039Z,8.75
2022-08-24T15:28:34.633Z,10.77
2022-08-24T15:31:08.122Z,8.63
2022-08-24T15:34:01.322Z,8.70
2022-08-24T15:36:33.076Z,9.88
2022-08-24T15:39:03.433Z,10.35
2022-08-24T15:41:35.682Z,12.23
2022-08-24T15:44:09.532Z,12.52
2022-08-24T15:46:57.633Z,12.52
2022-08-24T15:49:29.318Z,13.75
2022-08-24T15:52:06.429Z,9.77
2022-08-24T15:54:40.875Z,9.20
2022-08-24T15:57:17.567Z,9.43
2022-08-24T15:59:50.269Z,12.57
2022-08-24T16:02:30.667Z,9.38
2022-08-24T16:08:04.375Z,12.88
2022-08-24T16:10:40.136Z,8.95
2022-08-24T16:13:24.023Z,7.80
2022-08-24T16:16:09.083Z,11.48
2022-08-24T16:18:53.481Z,11.27
2022-08-24T16:21:34.088Z,13.25
2022-08-24T16:24:06.806Z,8.20
2022-08-24T16:26:57.017Z,8.23
2022-08-24T16:29:33.273Z,10.18
2022-08-24T16:32:22.739Z,11.27
2022-08-24T16:35:01.841Z,6.80
2022-08-24T16:37:29.121Z,11.40
2022-08-24T16:39:56.632Z,10.60
2022-08-24T16:42:27.307Z,12.60
2022-08-24T16:44:55.569Z,10.65
2022-08-24T16:47:23.398Z,12.98
2022-08-24T16:49:51.724Z,10.63
2022-08-24T16:52:19.538Z,9.85
2022-08-24T16:54:47.572Z,15.18
2022-08-24T16:57:19.021Z,7.43
2022-08-24T17:02:17.192Z,10.27
2022-08-24T17:04:45.928Z,12.80
2022-08-24T17:07:16.619Z,10.82
2022-08-24T17:09:47.025Z,9.60
2022-08-24T17:12:15.177Z,11.65
2022-08-24T17:14:43.601Z,10.55
2022-08-24T17:17:14.160Z,10.27
2022-08-24T17:19:43.436Z,8.98
2022-08-24T17:22:16.137Z,7.13
2022-08-24T17:24:44.993Z,6.90
2022-08-24T17:27:13.948Z,11.07
2022-08-24T17:29:55.936Z,9.15
2022-08-24T17:32:31.343Z,11.18
2022-08-24T17:35:06.131Z,9.48
2022-08-24T17:37:35.276Z,14.25
2022-08-24T17:40:05.808Z,13.23
2022-08-24T17:42:50.384Z,12.90
2022-08-24T17:45:22.896Z,8.80
2022-08-24T17:50:19.919Z,8.65
2022-08-24T17:52:48.083Z,12.88
2022-08-24T17:55:17.245Z,10.15
2022-08-24T17:57:51.745Z,9.95
2022-08-24T18:00:19.111Z,11.00
2022-08-24T18:02:46.895Z,13.13
2022-08-24T18:05:15.019Z,11.27
2022-08-24T18:07:53.504Z,8.15
2022-08-24T18:10:25.750Z,10.18
2022-08-24T18:12:53.427Z,11.10
2022-08-24T18:15:20.948Z,10.52
2022-08-24T18:17:51.760Z,10.63
2022-08-24T18:20:24.939Z,8.50
2022-08-24T18:22:54.338Z,10.82
2022-08-24T18:25:23.361Z,11.57
2022-08-24T18:27:54.704Z,6.78
2022-08-24T18:30:30.504Z,10.70
2022-08-24T18:32:59.949Z,9.27
2022-08-24T18:35:28.355Z,12.98
2022-08-24T18:37:57.432Z,9.02
2022-08-24T18:40:27.226Z,12.20
2022-08-24T18:43:02.160Z,8.60
2022-08-24T18:45:31.940Z,12.65
2022-08-24T18:47:59.258Z,6.95
2022-08-24T18:50:29.640Z,7.97
2022-08-24T18:53:00.553Z,7.47
2022-08-24T18:55:28.194Z,8.75
2022-08-24T18:57:55.660Z,9.32
2022-08-24T19:00:23.078Z,11.05
2022-08-24T19:02:50.719Z,7.85
2022-08-24T19:05:24.018Z,12.77
2022-08-24T19:07:54.792Z,11.82
2022-08-24T19:10:27.235Z,10.63
2022-08-24T19:13:06.653Z,10.52
2022-08-24T19:15:40.342Z,15.00
2022-08-24T19:18:11.357Z,13.57
2022-08-24T19:20:48.254Z,10.32
2022-08-24T19:23:23.960Z,12.65
2022-08-24T19:25:52.515Z,11.45
2022-08-24T19:28:21.527Z,9.77
2022-08-24T19:30:49.136Z,8.48
2022-08-24T19:33:23.931Z,13.45
2022-08-24T19:35:52.238Z,8.85
2022-08-24T19:38:24.649Z,8.45
2022-08-24T19:40:54.996Z,14.20
2022-08-24T19:43:24.695Z,11.45
2022-08-24T19:46:10.800Z,16.85
2022-08-24T19:48:40.106Z,12.27
2022-08-24T19:51:11.811Z,7.80
2022-08-24T19:53:40.124Z,13.93
2022-08-24T19:56:07.791Z,8.70
2022-08-24T19:58:58.967Z,11.57
2022-08-24T20:01:34.605Z,10.52
2022-08-24T20:04:06.209Z,10.60
2022-08-24T20:06:36.250Z,11.57
2022-08-24T20:09:04.585Z,11.30
2022-08-24T20:11:32.032Z,13.75
2022-08-24T20:13:59.640Z,11.80
2022-08-24T20:16:31.759Z,15.60
2022-08-24T20:19:00.592Z,11.05
2022-08-24T20:21:30.140Z,14.23
2022-08-24T20:24:01.802Z,9.85
2022-08-24T20:26:33.437Z,14.57
2022-08-24T20:29:00.948Z,12.80
2022-08-24T20:31:28.970Z,15.15
2022-08-24T20:33:57.493Z,14.88
2022-08-24T20:36:37.450Z,11.27
2022-08-24T20:39:12.777Z,11.45
2022-08-24T20:41:40.670Z,8.40
2022-08-24T20:44:09.387Z,13.30
2022-08-24T20:46:38.679Z,13.27
2022-08-24T20:49:07.918Z,13.88
2022-08-24T20:51:42.322Z,13.73
2022-08-24T20:54:11.475Z,16.20
2022-08-24T20:56:39.054Z,13.10
2022-08-24T20:59:09.885Z,14.38
2022-08-24T21:01:38.656Z,12.70
2022-08-24T21:04:06.084Z,13.63
2022-08-24T21:06:34.357Z,16.33
2022-08-24T21:09:02.484Z,14.15
2022-08-24T21:11:30.420Z,12.18
2022-08-24T21:13:58.600Z,18.88
2022-08-24T21:16:26.583Z,16.40
2022-08-24T21:18:53.916Z,14.07
2022-08-24T21:21:21.450Z,15.85
2022-08-24T21:23:48.798Z,12.18
2022-08-24T21:26:21.644Z,12.65
2022-08-24T21:28:50.027Z,13.20
2022-08-24T21:31:17.385Z,10.93
2022-08-24T21:34:03.306Z,11.60
2022-08-24T21:36:34.315Z,16.15
2022-08-24T21:39:05.494Z,14.60
2022-08-24T21:41:36.879Z,13.63
2022-08-24T21:44:04.394Z,10.43
2022-08-24T21:46:36.932Z,13.48
2022-08-24T21:49:05.198Z,14.88
2022-08-24T21:51:33.259Z,13.73
2022-08-24T21:54:01.445Z,12.07
2022-08-24T21:56:31.877Z,10.15
2022-08-24T21:58:59.569Z,12.88
2022-08-24T22:01:29.008Z,13.57
2022-08-24T22:03:58.313Z,12.52
2022-08-24T22:06:30.646Z,14.10
2022-08-24T22:08:59.368Z,14.65
2022-08-24T22:11:27.189Z,15.13
2022-08-24T22:13:54.777Z,25.52
2022-08-24T22:16:22.745Z,19.17
2022-08-24T22:18:50.310Z,14.77
2022-08-24T22:21:22.863Z,16.10
2022-08-24T22:23:50.536Z,20.58
2022-08-24T22:26:17.807Z,16.67
2022-08-24T22:28:45.085Z,13.18
2022-08-24T22:31:19.522Z,16.13
2022-08-24T22:33:47.766Z,17.42
2022-08-24T22:36:16.085Z,15.98
2022-08-24T22:38:44.087Z,18.17
2022-08-24T22:41:11.900Z,16.38
2022-08-24T22:43:58.513Z,12.65
2022-08-24T22:46:26.347Z,19.65
2022-08-24T22:48:54.481Z,22.90
2022-08-24T22:51:22.124Z,22.13
2022-08-24T22:53:49.446Z,22.08
2022-08-24T22:56:23.016Z,13.93
2022-08-24T22:58:50.673Z,19.20
2022-08-24T23:01:23.504Z,19.48
2022-08-24T23:03:51.141Z,17.63
2022-08-24T23:06:19.127Z,24.60
2022-08-24T23:08:46.660Z,17.55
2022-08-24T23:11:15.037Z,14.88
2022-08-24T23:13:42.799Z,17.42
2022-08-24T23:16:14.036Z,20.90
2022-08-24T23:18:59.822Z,20.67
2022-08-24T23:21:27.807Z,17.23
2022-08-24T23:23:55.996Z,13.43
2022-08-24T23:26:23.345Z,14.52
2022-08-24T23:28:50.854Z,11.30
2022-08-24T23:31:20.317Z,14.60
2022-08-24T23:33:47.804Z,12.23
2022-08-24T23:36:18.319Z,14.07
2022-08-24T23:38:45.601Z,11.20
2022-08-24T23:41:15.183Z,12.18
2022-08-24T23:43:43.481Z,14.40
2022-08-24T23:46:12.374Z,12.75
2022-08-24T23:48:40.990Z,13.52
2022-08-24T23:51:13.329Z,13.25
2022-08-24T23:53:46.932Z,11.75
2022-08-24T23:56:31.727Z,18.02
2022-08-24T23:59:06.573Z,16.25
